createdAt,value
2018-10-16T00:00:03.105Z,78.62
2018-10-16T00:16:44.609Z,84.30
2018-10-16T00:19:12.748Z,81.62
2018-10-16T00:21:41.424Z,84.16
2018-10-16T00:24:09.552Z,83.92
2018-10-16T00:26:37.688Z,83.65
2018-10-16T00:29:05.840Z,85.40
2018-10-16T00:31:33.968Z,84.41
2018-10-16T00:34:02.113Z,84.32
2018-10-16T00:36:30.272Z,84.68
2018-10-16T00:38:58.402Z,85.40
2018-10-16T00:41:26.575Z,85.10
2018-10-16T00:43:54.713Z,85.23
2018-10-16T00:46:22.957Z,85.74
2018-10-16T00:48:51.241Z,85.86
2018-10-16T00:51:19.366Z,86.24
2018-10-16T00:53:47.875Z,83.02
2018-10-16T00:56:16.053Z,80.22
2018-10-16T00:58:44.193Z,82.60
2018-10-16T01:01:12.336Z,83.90
2018-10-16T01:03:40.463Z,85.53
2018-10-16T01:06:09.159Z,84.42
2018-10-16T01:08:37.286Z,83.44
2018-10-16T01:11:09.218Z,84.50
2018-10-16T01:13:37.341Z,83.70
2018-10-16T01:16:05.869Z,83.24
2018-10-16T01:18:34.006Z,82.56
2018-10-16T01:21:02.178Z,81.67
2018-10-16T01:23:30.348Z,81.26
2018-10-16T01:25:58.483Z,80.94
2018-10-16T01:28:26.614Z,83.10
2018-10-16T01:30:54.754Z,84.16
2018-10-16T01:33:22.878Z,84.77
2018-10-16T01:35:51.030Z,83.26
2018-10-16T01:38:19.197Z,83.12
2018-10-16T01:40:47.332Z,84.45
2018-10-16T01:43:15.479Z,85.00
2018-10-16T01:45:43.611Z,87.40
2018-10-16T01:48:11.783Z,88.08
2018-10-16T01:50:39.915Z,89.76
2018-10-16T01:53:08.053Z,89.92
2018-10-16T01:55:36.186Z,86.51
2018-10-16T01:58:04.329Z,83.41
2018-10-16T02:00:32.452Z,81.75
2018-10-16T02:03:00.589Z,81.12
2018-10-16T02:05:28.722Z,82.17
2018-10-16T02:07:56.901Z,83.73
2018-10-16T02:10:25.133Z,83.89
2018-10-16T02:12:53.284Z,81.73
2018-10-16T02:15:21.495Z,80.68
2018-10-16T02:17:49.607Z,80.87
2018-10-16T02:20:17.748Z,80.27
2018-10-16T02:22:45.886Z,85.41
2018-10-16T02:25:14.028Z,87.37
2018-10-16T02:27:42.183Z,86.80
2018-10-16T02:30:10.315Z,87.12
2018-10-16T02:32:38.515Z,85.64
2018-10-16T02:35:07.233Z,85.79
2018-10-16T02:37:35.380Z,85.02
2018-10-16T02:40:03.685Z,85.94
2018-10-16T02:42:31.809Z,84.53
2018-10-16T02:44:59.947Z,83.82
2018-10-16T02:47:28.081Z,86.13
2018-10-16T02:49:56.330Z,87.96
2018-10-16T02:52:24.467Z,84.18
2018-10-16T02:54:52.605Z,84.01
2018-10-16T02:57:21.261Z,84.26
2018-10-16T02:59:49.400Z,83.85
2018-10-16T03:02:17.520Z,83.22
2018-10-16T03:04:45.649Z,83.64
2018-10-16T03:07:13.875Z,83.51
2018-10-16T03:09:41.919Z,84.32
2018-10-16T03:12:10.046Z,83.28
2018-10-16T03:14:38.190Z,84.58
2018-10-16T03:17:06.339Z,84.90
2018-10-16T03:19:34.477Z,86.25
2018-10-16T03:22:02.802Z,83.86
2018-10-16T03:24:30.948Z,82.99
2018-10-16T03:26:59.132Z,85.90
2018-10-16T03:29:27.289Z,90.99
2018-10-16T03:31:55.417Z,91.59
2018-10-16T03:34:23.554Z,93.08
2018-10-16T03:36:51.695Z,93.42
2018-10-16T03:39:19.884Z,92.46
2018-10-16T03:41:48.027Z,88.92
2018-10-16T03:44:17.593Z,88.56
2018-10-16T03:46:45.727Z,89.80
2018-10-16T03:49:13.858Z,89.56
2018-10-16T03:51:42.110Z,88.73
2018-10-16T03:54:10.677Z,87.97
2018-10-16T03:56:38.799Z,87.29
2018-10-16T03:59:07.145Z,85.90
2018-10-16T04:01:35.272Z,85.79
2018-10-16T04:04:03.414Z,85.10
2018-10-16T04:06:31.716Z,84.93
2018-10-16T04:08:59.806Z,83.54
2018-10-16T04:11:27.995Z,84.19
2018-10-16T04:13:56.257Z,84.15
2018-10-16T04:16:24.371Z,84.53
2018-10-16T04:18:52.500Z,86.20
2018-10-16T04:21:20.703Z,87.91
2018-10-16T04:23:48.851Z,89.80
2018-10-16T04:29:07.763Z,88.80
2018-10-16T04:31:35.945Z,89.46
2018-10-16T04:34:04.195Z,90.24
2018-10-16T04:36:32.386Z,91.41
2018-10-16T04:39:00.542Z,91.30
2018-10-16T04:41:29.176Z,91.23
2018-10-16T04:43:57.331Z,91.32
2018-10-16T04:46:28.477Z,84.91
2018-10-16T04:48:56.725Z,85.70
2018-10-16T04:51:24.905Z,87.34
2018-10-16T04:53:53.097Z,86.44
2018-10-16T04:56:21.265Z,86.15
2018-10-16T04:58:49.420Z,85.54
2018-10-16T05:01:17.588Z,85.20
2018-10-16T05:03:45.745Z,83.96
2018-10-16T05:06:13.915Z,83.46
2018-10-16T05:08:42.072Z,82.75
2018-10-16T05:11:10.237Z,83.27
2018-10-16T05:13:38.926Z,84.98
2018-10-16T05:16:07.529Z,85.28
2018-10-16T05:18:35.741Z,85.42
2018-10-16T05:21:03.900Z,85.86
2018-10-16T05:23:32.047Z,87.20
2018-10-16T05:26:00.243Z,86.65
2018-10-16T05:28:28.423Z,87.61
2018-10-16T05:30:56.606Z,87.04
2018-10-16T05:33:25.579Z,86.38
2018-10-16T05:35:53.727Z,84.98
2018-10-16T05:38:21.944Z,84.38
2018-10-16T05:40:50.093Z,84.87
2018-10-16T05:43:18.248Z,86.24
2018-10-16T05:45:46.898Z,87.60
2018-10-16T05:48:15.236Z,87.01
2018-10-16T05:50:43.438Z,86.13
2018-10-16T05:53:11.687Z,85.83
2018-10-16T05:55:39.831Z,84.66
2018-10-16T05:58:08.074Z,84.41
2018-10-16T06:00:40.528Z,83.39
2018-10-16T06:03:08.797Z,81.93
2018-10-16T06:05:36.973Z,86.30
2018-10-16T06:08:05.462Z,87.07
2018-10-16T06:10:33.682Z,88.32
2018-10-16T06:13:01.847Z,88.14
2018-10-16T06:15:29.989Z,88.95
2018-10-16T06:18:00.192Z,88.06
2018-10-16T06:20:28.393Z,88.16
2018-10-16T06:22:56.541Z,87.25
2018-10-16T06:25:24.725Z,87.81
2018-10-16T06:27:52.947Z,86.92
2018-10-16T06:30:21.142Z,85.82
2018-10-16T06:32:49.229Z,85.83
2018-10-16T06:35:17.401Z,89.01
2018-10-16T06:37:46.345Z,86.99
2018-10-16T06:40:14.514Z,87.50
2018-10-16T06:42:42.660Z,86.97
2018-10-16T06:45:11.333Z,87.36
2018-10-16T06:47:39.657Z,87.49
2018-10-16T06:50:10.002Z,86.35
2018-10-16T06:52:38.189Z,84.16
2018-10-16T06:55:06.398Z,83.29
2018-10-16T06:57:34.566Z,78.61
2018-10-16T07:00:02.732Z,74.12
2018-10-16T07:02:30.976Z,71.48
2018-10-16T07:04:59.665Z,71.58
2018-10-16T07:07:28.002Z,72.31
2018-10-16T07:09:56.065Z,72.60
2018-10-16T07:12:24.337Z,73.05
2018-10-16T07:14:52.588Z,71.89
2018-10-16T07:17:20.708Z,72.30
2018-10-16T07:19:49.413Z,72.28
2018-10-16T07:22:17.612Z,69.75
2018-10-16T07:24:45.765Z,69.12
2018-10-16T07:27:13.941Z,66.42
2018-10-16T07:29:42.096Z,65.05
2018-10-16T07:32:10.255Z,63.64
2018-10-16T07:34:39.385Z,61.76
2018-10-16T07:37:07.546Z,60.91
2018-10-16T07:39:35.773Z,61.20
2018-10-16T07:42:03.995Z,60.64
2018-10-16T07:44:32.172Z,58.64
2018-10-16T07:47:00.343Z,57.71
2018-10-16T07:49:28.497Z,57.84
2018-10-16T07:51:56.661Z,57.17
2018-10-16T07:54:24.871Z,56.99
2018-10-16T07:56:53.024Z,55.66
2018-10-16T07:59:21.195Z,55.82
2018-10-16T08:01:49.392Z,55.18
2018-10-16T08:04:17.562Z,54.08
2018-10-16T08:06:45.735Z,52.82
2018-10-16T08:09:16.017Z,51.84
2018-10-16T08:11:44.458Z,51.92
2018-10-16T08:14:13.348Z,52.55
2018-10-16T08:16:41.597Z,52.81
2018-10-16T08:19:09.773Z,52.93
2018-10-16T08:21:37.915Z,53.44
2018-10-16T08:24:06.389Z,53.46
2018-10-16T08:26:34.514Z,54.38
2018-10-16T08:29:02.701Z,54.31
2018-10-16T08:31:30.945Z,54.61
2018-10-16T08:33:59.104Z,54.20
2018-10-16T08:36:27.510Z,54.96
2018-10-16T08:39:29.484Z,55.51
2018-10-16T08:44:16.721Z,55.25
2018-10-16T08:46:56.264Z,55.88
2018-10-16T08:49:36.648Z,55.33
2018-10-16T08:52:04.768Z,56.75
2018-10-16T08:54:32.888Z,55.62
2018-10-16T08:57:01.058Z,54.43
2018-10-16T08:59:29.180Z,54.71
2018-10-16T09:01:57.311Z,54.33
2018-10-16T09:04:25.823Z,54.20
2018-10-16T09:06:54.004Z,53.64
2018-10-16T09:09:22.894Z,53.04
2018-10-16T09:11:51.013Z,53.55
2018-10-16T09:14:19.207Z,52.79
2018-10-16T09:16:47.289Z,52.59
2018-10-16T09:19:15.464Z,52.04
2018-10-16T09:21:43.585Z,52.82
2018-10-16T09:24:12.646Z,52.01
2018-10-16T09:26:40.780Z,51.86
2018-10-16T09:29:08.903Z,50.69
2018-10-16T09:31:37.063Z,50.26
2018-10-16T09:34:05.217Z,51.63
2018-10-16T09:36:33.390Z,52.86
2018-10-16T09:39:02.410Z,52.92
2018-10-16T09:41:30.543Z,51.73
2018-10-16T09:43:58.655Z,51.76
2018-10-16T09:46:26.820Z,51.95
2018-10-16T09:48:54.937Z,51.54
2018-10-16T09:51:23.157Z,51.22
2018-10-16T09:53:51.389Z,50.58
2018-10-16T09:56:19.519Z,51.01
2018-10-16T09:58:47.640Z,52.26
2018-10-16T10:01:21.220Z,53.42
2018-10-16T10:03:49.337Z,53.61
2018-10-16T10:06:17.529Z,53.58
2018-10-16T10:08:45.714Z,53.26
2018-10-16T10:11:13.851Z,52.46
2018-10-16T10:13:41.962Z,53.49
2018-10-16T10:16:10.154Z,52.64
2018-10-16T10:18:38.272Z,51.63
2018-10-16T10:21:06.392Z,50.40
2018-10-16T10:23:34.583Z,48.16
2018-10-16T10:26:02.706Z,46.98
2018-10-16T10:28:30.835Z,46.10
2018-10-16T10:30:59.569Z,46.86
2018-10-16T10:33:27.693Z,46.32
2018-10-16T10:35:55.814Z,45.88
2018-10-16T10:38:23.962Z,43.35
2018-10-16T10:40:52.077Z,43.86
2018-10-16T10:43:21.056Z,42.17
2018-10-16T10:45:49.174Z,42.49
2018-10-16T10:48:17.299Z,42.88
2018-10-16T10:50:47.112Z,42.40
2018-10-16T10:53:15.025Z,41.36
2018-10-16T10:55:43.148Z,40.83
2018-10-16T10:58:11.350Z,40.97
2018-10-16T11:00:39.456Z,41.31
2018-10-16T11:03:07.645Z,40.97
2018-10-16T11:05:35.788Z,41.75
2018-10-16T11:08:03.908Z,41.38
2018-10-16T11:10:32.037Z,39.33
2018-10-16T11:13:00.204Z,39.80
2018-10-16T11:15:28.330Z,39.75
2018-10-16T11:17:56.450Z,40.11
2018-10-16T11:20:24.597Z,39.25
2018-10-16T11:22:52.703Z,39.60
2018-10-16T11:25:20.831Z,39.30
2018-10-16T11:27:48.965Z,39.23
2018-10-16T11:30:17.130Z,39.13
2018-10-16T11:32:45.222Z,38.32
2018-10-16T11:35:14.569Z,37.93
2018-10-16T11:37:42.922Z,38.06
2018-10-16T11:40:11.434Z,38.53
2018-10-16T11:42:40.293Z,37.68
2018-10-16T11:45:08.558Z,37.14
2018-10-16T11:47:37.263Z,37.19
2018-10-16T11:50:06.355Z,36.68
2018-10-16T11:52:34.505Z,37.30
2018-10-16T11:55:02.630Z,37.37
2018-10-16T11:57:30.804Z,36.41
2018-10-16T11:59:58.939Z,36.65
2018-10-16T12:02:27.124Z,36.83
2018-10-16T12:04:55.334Z,35.57
2018-10-16T12:07:23.455Z,35.79
2018-10-16T12:09:51.628Z,35.99
2018-10-16T12:12:19.778Z,35.20
2018-10-16T12:14:47.901Z,34.37
2018-10-16T12:17:21.482Z,35.27
2018-10-16T12:19:53.827Z,33.83
2018-10-16T12:22:21.890Z,32.65
2018-10-16T12:24:50.133Z,34.04
2018-10-16T12:27:18.256Z,32.80
2018-10-16T12:29:46.386Z,33.16
2018-10-16T12:32:14.563Z,32.29
2018-10-16T12:34:42.632Z,31.55
2018-10-16T12:37:10.840Z,32.09
2018-10-16T12:39:42.003Z,32.13
2018-10-16T12:42:10.133Z,31.06
2018-10-16T12:44:38.300Z,30.60
2018-10-16T12:47:06.635Z,30.16
2018-10-16T12:49:34.747Z,30.86
2018-10-16T12:52:03.117Z,30.45
2018-10-16T12:54:31.259Z,30.88
2018-10-16T12:56:59.466Z,31.17
2018-10-16T12:59:27.567Z,30.41
2018-10-16T13:01:55.720Z,30.95
2018-10-16T13:04:23.861Z,30.77
2018-10-16T13:06:53.139Z,31.12
2018-10-16T13:09:21.274Z,31.00
2018-10-16T13:11:49.434Z,30.73
2018-10-16T13:14:17.669Z,30.44
2018-10-16T13:16:45.834Z,32.30
2018-10-16T13:19:13.930Z,32.64
2018-10-16T13:21:42.093Z,32.54
2018-10-16T13:24:10.241Z,31.41
2018-10-16T13:26:38.391Z,32.84
2018-10-16T13:29:06.572Z,32.00
2018-10-16T13:31:34.683Z,32.12
2018-10-16T13:34:02.849Z,32.75
2018-10-16T13:36:32.247Z,33.17
2018-10-16T13:39:00.389Z,33.27
2018-10-16T13:41:28.545Z,32.79
2018-10-16T13:43:56.714Z,32.15
2018-10-16T13:46:24.988Z,33.32
2018-10-16T13:48:53.148Z,32.92
2018-10-16T13:51:21.289Z,33.00
2018-10-16T13:53:49.414Z,33.23
2018-10-16T13:56:17.574Z,33.53
2018-10-16T13:58:45.786Z,32.38
2018-10-16T14:01:13.924Z,32.93
2018-10-16T14:03:42.965Z,33.54
2018-10-16T14:06:11.110Z,34.13
2018-10-16T14:08:39.250Z,33.09
2018-10-16T14:11:08.508Z,32.89
2018-10-16T14:13:36.656Z,33.65
2018-10-16T14:16:05.253Z,34.07
2018-10-16T14:18:33.353Z,32.92
2018-10-16T14:21:01.478Z,32.53
2018-10-16T14:23:29.682Z,34.91
2018-10-16T14:25:57.832Z,33.41
2018-10-16T14:28:26.040Z,32.62
2018-10-16T14:30:54.245Z,33.33
2018-10-16T14:33:22.403Z,33.52
2018-10-16T14:35:50.580Z,32.97
2018-10-16T14:38:18.902Z,32.77
2018-10-16T14:40:47.049Z,33.13
2018-10-16T14:43:15.192Z,33.44
2018-10-16T14:45:43.453Z,33.79
2018-10-16T14:48:11.668Z,32.88
2018-10-16T14:50:39.743Z,33.52
2018-10-16T14:53:10.326Z,34.45
2018-10-16T14:55:38.462Z,33.59
2018-10-16T14:58:06.689Z,34.20
2018-10-16T15:00:34.768Z,34.16
2018-10-16T15:03:02.909Z,34.59
2018-10-16T15:05:31.048Z,33.77
2018-10-16T15:07:59.229Z,34.55
2018-10-16T15:10:27.433Z,35.02
2018-10-16T15:12:55.513Z,35.95
2018-10-16T15:15:23.703Z,36.23
2018-10-16T15:17:51.829Z,36.58
2018-10-16T15:20:20.024Z,36.76
2018-10-16T15:22:48.241Z,38.39
2018-10-16T15:25:16.386Z,42.24
2018-10-16T15:27:44.569Z,41.69
2018-10-16T15:30:12.773Z,42.05
2018-10-16T15:32:40.923Z,43.68
2018-10-16T15:35:10.195Z,42.93
2018-10-16T15:37:38.659Z,43.18
2018-10-16T15:40:08.050Z,42.88
2018-10-16T15:42:36.144Z,42.86
2018-10-16T15:45:04.759Z,43.53
2018-10-16T15:47:32.897Z,44.16
2018-10-16T15:50:01.128Z,43.76
2018-10-16T15:52:29.227Z,43.68
2018-10-16T15:54:57.390Z,45.91
2018-10-16T15:57:25.592Z,46.63
2018-10-16T16:00:00.106Z,47.67
2018-10-16T16:02:28.352Z,47.31
2018-10-16T16:04:56.489Z,48.37
2018-10-16T16:07:24.623Z,47.56
2018-10-16T16:09:52.924Z,49.14
2018-10-16T16:12:21.076Z,48.62
2018-10-16T16:14:49.189Z,50.05
2018-10-16T16:17:17.415Z,48.53
2018-10-16T16:19:45.583Z,49.86
2018-10-16T16:22:13.779Z,49.69
2018-10-16T16:24:41.897Z,49.78
2018-10-16T16:27:10.047Z,50.81
2018-10-16T16:29:38.192Z,50.93
2018-10-16T16:32:07.641Z,51.56
2018-10-16T16:34:35.785Z,51.39
2018-10-16T16:37:03.929Z,51.20
2018-10-16T16:39:32.157Z,51.89
2018-10-16T16:42:00.335Z,52.58
2018-10-16T16:44:28.477Z,52.95
2018-10-16T16:46:57.085Z,53.34
2018-10-16T16:49:25.207Z,52.61
2018-10-16T16:51:53.376Z,52.82
2018-10-16T16:54:22.839Z,52.94
2018-10-16T16:56:50.980Z,54.07
2018-10-16T16:59:19.114Z,55.71
2018-10-16T17:01:47.313Z,56.33
2018-10-16T17:04:15.478Z,57.84
2018-10-16T17:06:43.882Z,56.94
2018-10-16T17:09:12.996Z,57.56
2018-10-16T17:11:41.169Z,57.80
2018-10-16T17:14:09.619Z,58.11
2018-10-16T17:16:38.162Z,57.71
2018-10-16T17:19:06.607Z,58.23
2018-10-16T17:21:34.741Z,59.17
2018-10-16T17:24:02.975Z,58.62
2018-10-16T17:26:31.143Z,58.29
2018-10-16T17:28:59.262Z,60.23
2018-10-16T17:31:28.179Z,60.80
2018-10-16T17:33:56.328Z,60.09
2018-10-16T17:36:24.508Z,59.75
2018-10-16T17:38:52.689Z,60.46
2018-10-16T17:41:20.777Z,60.82
2018-10-16T17:43:48.900Z,61.15
2018-10-16T17:46:17.156Z,61.89
2018-10-16T17:48:45.263Z,65.29
2018-10-16T17:51:13.470Z,64.65
2018-10-16T17:53:41.534Z,63.39
2018-10-16T17:56:09.989Z,63.95
2018-10-16T17:58:38.984Z,63.78
2018-10-16T18:01:07.161Z,62.62
2018-10-16T18:03:35.332Z,62.29
2018-10-16T18:06:03.488Z,61.75
2018-10-16T18:08:31.681Z,62.98
2018-10-16T18:10:59.837Z,64.90
2018-10-16T18:13:27.986Z,65.08
2018-10-16T18:15:56.179Z,64.97
2018-10-16T18:18:24.315Z,63.19
2018-10-16T18:20:52.463Z,64.48
2018-10-16T18:23:20.582Z,65.64
2018-10-16T18:25:48.775Z,65.70
2018-10-16T18:28:17.429Z,66.06
2018-10-16T18:30:45.564Z,66.69
2018-10-16T18:33:13.712Z,66.18
2018-10-16T18:35:41.916Z,65.09
2018-10-16T18:38:10.200Z,65.98
2018-10-16T18:40:38.313Z,67.71
2018-10-16T18:43:06.823Z,70.12
2018-10-16T18:45:34.960Z,71.22
2018-10-16T18:48:03.082Z,67.44
2018-10-16T18:50:31.205Z,66.82
2018-10-16T18:52:59.405Z,69.47
2018-10-16T18:55:27.579Z,70.47
2018-10-16T18:57:55.712Z,70.30
2018-10-16T19:00:23.839Z,69.53
2018-10-16T19:02:52.025Z,69.24
2018-10-16T19:05:20.137Z,70.81
2018-10-16T19:07:48.399Z,70.62
2018-10-16T19:10:16.464Z,69.49
2018-10-16T19:12:44.592Z,71.15
2018-10-16T19:15:14.133Z,69.54
2018-10-16T19:17:43.007Z,67.33
2018-10-16T19:20:12.219Z,68.06
2018-10-16T19:22:40.704Z,69.95
2018-10-16T19:25:09.673Z,69.42
2018-10-16T19:27:37.863Z,70.00
2018-10-16T19:30:07.206Z,70.41
2018-10-16T19:32:35.508Z,71.28
2018-10-16T19:35:03.625Z,71.22
2018-10-16T19:37:31.785Z,70.62
2018-10-16T19:39:59.858Z,72.35
2018-10-16T19:42:28.029Z,72.84
2018-10-16T19:44:56.199Z,71.75
2018-10-16T19:47:24.328Z,71.57
2018-10-16T19:49:53.748Z,71.07
2018-10-16T19:52:21.879Z,69.73
2018-10-16T19:54:50.006Z,72.58
2018-10-16T19:57:18.153Z,77.05
2018-10-16T19:59:46.300Z,78.73
2018-10-16T20:02:14.420Z,78.00
2018-10-16T20:04:42.709Z,78.10
2018-10-16T20:07:10.893Z,76.75
2018-10-16T20:09:38.966Z,77.35
2018-10-16T20:12:07.273Z,76.14
2018-10-16T20:14:35.477Z,75.06
2018-10-16T20:17:03.658Z,75.05
2018-10-16T20:19:31.824Z,74.97
2018-10-16T20:21:59.946Z,74.81
2018-10-16T20:24:28.110Z,74.93
2018-10-16T20:26:56.391Z,74.68
2018-10-16T20:29:24.506Z,75.63
2018-10-16T20:31:52.697Z,74.58
2018-10-16T20:34:20.822Z,74.28
2018-10-16T20:36:48.949Z,71.86
2018-10-16T20:39:17.185Z,76.66
2018-10-16T20:41:45.309Z,79.21
2018-10-16T20:44:13.440Z,82.90
2018-10-16T20:46:42.345Z,82.07
2018-10-16T20:49:10.503Z,80.24
2018-10-16T20:51:38.598Z,80.19
2018-10-16T20:54:06.762Z,79.76
2018-10-16T20:56:34.872Z,79.79
2018-10-16T20:59:02.985Z,76.93
2018-10-16T21:01:31.172Z,76.99
2018-10-16T21:03:59.297Z,78.59
2018-10-16T21:06:28.010Z,78.50
2018-10-16T21:08:55.957Z,79.04
2018-10-16T21:11:24.080Z,79.67
2018-10-16T21:13:52.664Z,77.75
2018-10-16T21:16:20.773Z,76.59
2018-10-16T21:18:49.010Z,75.75
2018-10-16T21:21:17.183Z,75.50
2018-10-16T21:23:45.334Z,76.89
2018-10-16T21:26:13.457Z,78.96
2018-10-16T21:28:41.662Z,79.80
2018-10-16T21:31:09.877Z,79.89
2018-10-16T21:33:37.928Z,78.58
2018-10-16T21:36:06.272Z,78.94
2018-10-16T21:38:34.437Z,78.38
2018-10-16T21:41:03.445Z,78.22
2018-10-16T21:43:31.508Z,77.18
2018-10-16T21:45:59.609Z,77.52
2018-10-16T21:48:27.772Z,77.07
2018-10-16T21:50:55.879Z,79.56
2018-10-16T21:53:23.997Z,80.45
2018-10-16T21:55:52.141Z,78.72
2018-10-16T21:58:20.250Z,77.87
2018-10-16T22:00:53.714Z,79.29
2018-10-16T22:03:21.864Z,79.37
2018-10-16T22:05:49.981Z,81.01
2018-10-16T22:08:18.189Z,81.33
2018-10-16T22:10:46.312Z,78.23
2018-10-16T22:13:14.538Z,78.03
2018-10-16T22:15:42.616Z,80.02
2018-10-16T22:18:10.742Z,82.59
2018-10-16T22:20:38.864Z,83.92
2018-10-16T22:23:07.018Z,83.94
2018-10-16T22:25:35.163Z,82.86
2018-10-16T22:28:03.277Z,81.91
2018-10-16T22:30:31.413Z,81.84
2018-10-16T22:32:59.627Z,81.27
2018-10-16T22:35:27.752Z,80.11
2018-10-16T22:37:55.885Z,78.78
2018-10-16T22:40:24.062Z,79.56
2018-10-16T22:42:52.276Z,78.86
2018-10-16T22:45:20.403Z,78.07
2018-10-16T22:47:48.513Z,76.75
2018-10-16T22:50:16.641Z,77.21
2018-10-16T22:52:44.820Z,81.32
2018-10-16T22:55:12.958Z,83.22
2018-10-16T22:57:41.039Z,85.49
2018-10-16T23:00:14.398Z,86.15
2018-10-16T23:02:42.933Z,85.57
2018-10-16T23:05:11.097Z,83.16
2018-10-16T23:07:39.293Z,81.17
2018-10-16T23:10:07.557Z,80.80
2018-10-16T23:12:35.704Z,79.72
2018-10-16T23:15:03.868Z,81.55
2018-10-16T23:17:32.005Z,83.08
2018-10-16T23:20:00.112Z,84.81
2018-10-16T23:22:28.242Z,84.22
2018-10-16T23:24:56.395Z,83.32
2018-10-16T23:27:24.480Z,81.41
2018-10-16T23:29:52.719Z,81.27
2018-10-16T23:32:20.828Z,80.99
2018-10-16T23:34:49.225Z,81.29
2018-10-16T23:37:17.465Z,78.45
2018-10-16T23:39:45.521Z,79.40
2018-10-16T23:42:13.657Z,84.53
2018-10-16T23:44:41.789Z,86.21
2018-10-16T23:47:10.002Z,84.43
2018-10-16T23:49:38.218Z,83.41
2018-10-16T23:52:06.324Z,82.16
2018-10-16T23:54:34.873Z,81.49
2018-10-16T23:57:03.948Z,80.78
2018-10-16T23:59:32.156Z,79.42
